createdAt,value
2019-02-28T00:00:02.947Z,17.6
2019-02-28T00:01:02.866Z,24.88
2019-02-28T00:02:03.187Z,21.53
2019-02-28T00:03:02.937Z,23.03
2019-02-28T00:04:02.638Z,19.99
2019-02-28T00:05:05.961Z,20.35
2019-02-28T00:06:03.495Z,24.61
2019-02-28T00:07:03.457Z,20.17
2019-02-28T00:08:03.228Z,25.84
2019-02-28T00:09:03.002Z,22.28
2019-02-28T00:10:03.255Z,18.22
2019-02-28T00:11:04.989Z,26.42
2019-02-28T00:12:03.468Z,26.16
2019-02-28T00:13:03.375Z,26.44
2019-02-28T00:14:03.358Z,17.29
2019-02-28T00:15:03.337Z,18.9
2019-02-28T00:16:04.003Z,22.68
2019-02-28T00:17:06.150Z,21.69
2019-02-28T00:18:03.726Z,17.34
2019-02-28T00:19:03.324Z,23.38
2019-02-28T00:20:03.226Z,22.16
2019-02-28T00:21:06.317Z,23.29
2019-02-28T00:22:02.923Z,23.62
2019-02-28T00:23:02.928Z,24.21
2019-02-28T00:24:03.123Z,18.36
2019-02-28T00:25:04.183Z,18.36
2019-02-28T00:26:03.037Z,24.75
2019-02-28T00:27:02.757Z,17.64
2019-02-28T00:28:03.191Z,17.64
2019-02-28T00:29:03.045Z,24.94
2019-02-28T00:30:05.942Z,19.44
2019-02-28T00:31:02.841Z,27.57
2019-02-28T00:32:03.072Z,20.34
2019-02-28T00:33:03.541Z,27
2019-02-28T00:34:05.322Z,21.24
2019-02-28T00:35:03.134Z,17.42
2019-02-28T00:36:03.260Z,20.38
2019-02-28T00:37:03.058Z,23.79
2019-02-28T00:38:02.894Z,24.31
2019-02-28T00:39:04.050Z,18.53
2019-02-28T00:40:02.853Z,19.33
2019-02-28T00:41:03.217Z,18.56
2019-02-28T00:42:02.900Z,27.99
2019-02-28T00:43:03.043Z,19.44
2019-02-28T00:44:04.404Z,18.96
2019-02-28T00:45:03.737Z,19.66
2019-02-28T00:46:03.030Z,16.82
2019-02-28T00:47:02.837Z,22.08
2019-02-28T00:48:02.995Z,19.15
2019-02-28T00:49:02.882Z,21.01
2019-02-28T00:50:03.001Z,24.36
2019-02-28T00:51:03.664Z,24.36
2019-02-28T00:52:02.977Z,18.17
2019-02-28T00:53:02.776Z,26.5
2019-02-28T00:54:02.895Z,20.25
2019-02-28T00:55:02.930Z,22.38
2019-02-28T00:56:03.665Z,18.88
2019-02-28T00:57:02.757Z,19.28
2019-02-28T00:58:03.651Z,21.39
2019-02-28T00:59:03.689Z,25.78
2019-02-28T01:00:05.373Z,17.31
2019-02-28T01:01:03.561Z,15.25
2019-02-28T01:02:03.652Z,24.01
2019-02-28T01:03:03.327Z,22.78
2019-02-28T01:04:03.438Z,15.22
2019-02-28T01:05:04.793Z,14.74
2019-02-28T01:06:03.487Z,17.46
2019-02-28T01:07:03.481Z,16.96
2019-02-28T01:08:03.466Z,17.39
2019-02-28T01:09:03.418Z,16.52
2019-02-28T01:10:04.504Z,19.64
2019-02-28T01:11:01.890Z,16.45
2019-02-28T01:12:03.680Z,23.5
2019-02-28T01:13:03.745Z,23.5
2019-02-28T01:14:03.065Z,16.13
2019-02-28T01:15:02.983Z,26.31
2019-02-28T01:16:03.626Z,26.31
2019-02-28T01:17:03.347Z,21.67
2019-02-28T01:18:03.439Z,19.15
2019-02-28T01:19:02.902Z,15.05
2019-02-28T01:20:03.117Z,22.61
2019-02-28T01:21:03.081Z,23.38
2019-02-28T01:22:03.123Z,21.62
2019-02-28T01:23:02.992Z,17.45
2019-02-28T01:24:03.131Z,22.41
2019-02-28T01:25:06.457Z,15.01
2019-02-28T01:26:03.266Z,20.22
2019-02-28T01:27:03.129Z,19.42
2019-02-28T01:28:02.997Z,15.81
2019-02-28T01:29:03.123Z,16.61
2019-02-28T01:30:03.240Z,20.82
2019-02-28T01:31:03.150Z,15.29
2019-02-28T01:32:02.771Z,19.06
2019-02-28T01:33:03.025Z,16.07
2019-02-28T01:34:03.068Z,15.52
2019-02-28T01:35:05.582Z,19.92
2019-02-28T01:36:02.833Z,15.44
2019-02-28T01:37:02.783Z,14.53
2019-02-28T01:38:02.495Z,15.33
2019-02-28T01:39:03.670Z,14.38
2019-02-28T01:40:04.311Z,15.8
2019-02-28T01:41:03.738Z,17.38
2019-02-28T01:42:03.692Z,14.57
2019-02-28T01:43:03.743Z,15.64
2019-02-28T01:44:03.445Z,12.65
2019-02-28T01:45:03.159Z,16.09
2019-02-28T01:46:03.465Z,22.86
2019-02-28T01:47:02.689Z,16.44
2019-02-28T01:48:03.591Z,10.34
2019-02-28T01:49:03.478Z,14.79
2019-02-28T01:50:03.317Z,11.98
2019-02-28T01:51:03.739Z,18.14
2019-02-28T01:52:03.625Z,18.18
2019-02-28T01:53:03.530Z,13.04
2019-02-28T01:54:03.529Z,15.95
2019-02-28T01:55:03.575Z,11.51
2019-02-28T01:56:03.310Z,9.65
2019-02-28T01:57:03.332Z,14.28
2019-02-28T01:58:04.074Z,14.28
2019-02-28T01:59:03.222Z,13.32
2019-02-28T02:00:03.335Z,10.48
2019-02-28T02:01:02.765Z,10.48
2019-02-28T02:02:06.618Z,9.82
2019-02-28T02:03:03.605Z,14.35
2019-02-28T02:04:03.661Z,11.44
2019-02-28T02:05:02.740Z,11.44
2019-02-28T02:06:02.528Z,12.78
2019-02-28T02:07:03.531Z,11.46
2019-02-28T02:08:06.218Z,11.46
2019-02-28T02:09:02.758Z,10.65
2019-02-28T02:10:03.670Z,12.56
2019-02-28T02:11:03.736Z,11.98
2019-02-28T02:12:03.619Z,9.68
2019-02-28T02:13:04.309Z,11.52
2019-02-28T02:14:03.501Z,16.71
2019-02-28T02:15:03.345Z,12.89
2019-02-28T02:16:03.559Z,11.89
2019-02-28T02:17:03.234Z,15.84
2019-02-28T02:18:06.277Z,11.59
2019-02-28T02:19:03.385Z,12.05
2019-02-28T02:20:03.404Z,11.52
2019-02-28T02:21:03.352Z,12.48
2019-02-28T02:22:03.380Z,15.73
2019-02-28T02:23:03.312Z,13.02
2019-02-28T02:24:03.246Z,12.79
2019-02-28T02:25:04.231Z,10.49
2019-02-28T02:26:03.302Z,12.08
2019-02-28T02:27:03.050Z,11.68
2019-02-28T02:28:03.195Z,9.38
2019-02-28T02:29:03.155Z,12.12
2019-02-28T02:30:02.842Z,12.75
2019-02-28T02:31:02.898Z,11.95
2019-02-28T02:32:02.722Z,15.92
2019-02-28T02:33:02.991Z,12.19
2019-02-28T02:34:03.064Z,11
2019-02-28T02:35:07.782Z,11.38
2019-02-28T02:36:02.983Z,12.84
2019-02-28T02:37:02.866Z,11.3
2019-02-28T02:38:04.573Z,10.75
2019-02-28T02:39:03.662Z,11.17
2019-02-28T02:40:03.536Z,21.15
2019-02-28T02:41:04.853Z,15.05
2019-02-28T02:42:09.706Z,16.16
2019-02-28T02:43:02.901Z,11.42
2019-02-28T02:44:03.075Z,11.52
2019-02-28T02:45:04.748Z,11.78
2019-02-28T02:46:03.606Z,9.31
2019-02-28T02:47:03.337Z,18.1
2019-02-28T02:48:05.141Z,14.34
2019-02-28T02:49:03.019Z,11.72
2019-02-28T02:50:03.388Z,14.17
2019-02-28T02:51:03.107Z,10.92
2019-02-28T02:52:03.318Z,10.91
2019-02-28T02:53:05.337Z,10.91
2019-02-28T02:54:03.226Z,10.42
2019-02-28T02:55:03.030Z,13.22
2019-02-28T02:56:03.836Z,13.22
2019-02-28T02:57:03.202Z,11.54
2019-02-28T02:58:03.091Z,12.92
2019-02-28T02:59:03.408Z,11.61
2019-02-28T03:00:03.238Z,15.44
2019-02-28T03:01:02.908Z,16.15
2019-02-28T03:02:02.748Z,10.68
2019-02-28T03:03:05.977Z,12.32
2019-02-28T03:04:03.297Z,14.63
2019-02-28T03:05:03.533Z,9.38
2019-02-28T03:06:03.294Z,12.58
2019-02-28T03:07:02.900Z,9.24
2019-02-28T03:08:03.013Z,10.35
2019-02-28T03:09:02.986Z,8.46
2019-02-28T03:10:03.102Z,12.17
2019-02-28T03:11:03.233Z,9.79
2019-02-28T03:12:02.823Z,11.25
2019-02-28T03:13:04.696Z,12.99
2019-02-28T03:14:02.785Z,11.26
2019-02-28T03:15:03.654Z,9.6
2019-02-28T03:16:03.020Z,10.97
2019-02-28T03:17:09.553Z,12.71
2019-02-28T03:18:03.021Z,10.13
2019-02-28T03:19:02.924Z,11.96
2019-02-28T03:20:07.314Z,9.16
2019-02-28T03:21:03.016Z,10.54
2019-02-28T03:22:02.815Z,9.12
2019-02-28T03:23:03.282Z,7.44
2019-02-28T03:24:02.667Z,8.69
2019-02-28T03:25:03.066Z,8.98
2019-02-28T03:26:06.806Z,10.7
2019-02-28T03:27:02.962Z,10.43
2019-02-28T03:28:02.874Z,12.79
2019-02-28T03:29:07.476Z,16.15
2019-02-28T03:30:03.783Z,9.72
2019-02-28T03:31:11.473Z,11.14
2019-02-28T03:32:03.554Z,13.41
2019-02-28T03:33:03.454Z,8.56
2019-02-28T03:34:12.684Z,13.23
2019-02-28T03:35:03.012Z,9.72
2019-02-28T03:36:02.901Z,9.86
2019-02-28T03:37:03.052Z,9.86
2019-02-28T03:38:10.166Z,9.11
2019-02-28T03:39:03.044Z,9.11
2019-02-28T03:40:04.912Z,12.98
2019-02-28T03:41:03.860Z,11.56
2019-02-28T03:42:02.955Z,11.56
2019-02-28T03:43:06.607Z,7.67
2019-02-28T03:44:02.840Z,21.49
2019-02-28T03:45:02.940Z,11.79
2019-02-28T03:46:06.248Z,10.89
2019-02-28T03:47:03.591Z,10.28
2019-02-28T03:48:03.558Z,11.65
2019-02-28T03:49:10.839Z,14.88
2019-02-28T03:50:03.783Z,10.15
2019-02-28T03:51:03.523Z,7.09
2019-02-28T03:52:06.563Z,7.48
2019-02-28T03:53:03.442Z,7.68
2019-02-28T03:54:02.733Z,10.35
2019-02-28T03:55:04.495Z,9.16
2019-02-28T03:56:03.745Z,7.69
2019-02-28T03:57:03.648Z,13.36
2019-02-28T03:58:05.382Z,7.96
2019-02-28T03:59:03.034Z,6.41
2019-02-28T04:00:03.412Z,9.8
2019-02-28T04:01:08.541Z,7.94
2019-02-28T04:02:03.448Z,6.72
2019-02-28T04:03:03.501Z,9.15
2019-02-28T04:04:10.708Z,7.54
2019-02-28T04:05:03.671Z,7.24
2019-02-28T04:06:03.597Z,8.36
2019-02-28T04:07:02.749Z,12.02
2019-02-28T04:08:03.862Z,11.14
2019-02-28T04:09:08.315Z,9.96
2019-02-28T04:10:03.627Z,6.92
2019-02-28T04:11:03.572Z,9.02
2019-02-28T04:12:08.483Z,11.81
2019-02-28T04:13:03.553Z,9.32
2019-02-28T04:14:03.858Z,8.91
2019-02-28T04:15:05.699Z,8.1
2019-02-28T04:16:08.887Z,7.74
2019-02-28T04:17:03.295Z,7.97
2019-02-28T04:18:07.417Z,7.35
2019-02-28T04:19:03.588Z,9.62
2019-02-28T04:20:03.619Z,7.26
2019-02-28T04:21:03.336Z,7.19
2019-02-28T04:22:02.930Z,8.64
2019-02-28T04:23:03.361Z,9.54
2019-02-28T04:24:03.543Z,7.97
2019-02-28T04:25:03.689Z,8.82
2019-02-28T04:26:03.185Z,8.82
2019-02-28T04:27:06.798Z,8.82
2019-02-28T04:28:03.250Z,7.5
2019-02-28T04:29:03.540Z,7.5
2019-02-28T04:30:07.839Z,9.71
2019-02-28T04:31:03.178Z,6.89
2019-02-28T04:32:03.063Z,6.89
2019-02-28T04:33:03.363Z,11.82
2019-02-28T04:34:03.331Z,6.22
2019-02-28T04:35:03.630Z,9.26
2019-02-28T04:36:03.253Z,9.26
2019-02-28T04:37:03.366Z,5.55
2019-02-28T04:38:03.260Z,8.89
2019-02-28T04:39:03.305Z,7.79
2019-02-28T04:40:03.257Z,8.36
2019-02-28T04:41:03.077Z,9.01
2019-02-28T04:42:04.934Z,11.13
2019-02-28T04:43:03.202Z,9.16
2019-02-28T04:44:03.390Z,7.21
2019-02-28T04:45:03.246Z,9.55
2019-02-28T04:46:03.435Z,10.82
2019-02-28T04:47:03.321Z,8.31
2019-02-28T04:48:03.072Z,7.41
2019-02-28T04:49:03.194Z,9.01
2019-02-28T04:50:03.224Z,6.95
2019-02-28T04:51:05.670Z,7.44
2019-02-28T04:52:03.204Z,14.01
2019-02-28T04:53:02.987Z,8.62
2019-02-28T04:54:02.877Z,9.62
2019-02-28T04:55:03.928Z,7.59
2019-02-28T04:56:03.127Z,8.38
2019-02-28T04:57:03.301Z,9.58
2019-02-28T04:58:02.477Z,8.11
2019-02-28T04:59:02.785Z,7.69
2019-02-28T05:00:05.787Z,8.86
2019-02-28T05:01:03.002Z,8.98
2019-02-28T05:02:02.824Z,11.19
2019-02-28T05:03:02.764Z,9.94
2019-02-28T05:04:03.146Z,8.85
2019-02-28T05:05:02.947Z,6.31
2019-02-28T05:06:02.686Z,10.26
2019-02-28T05:07:02.751Z,8.55
2019-02-28T05:08:05.530Z,7.23
2019-02-28T05:09:02.770Z,8.67
2019-02-28T05:10:02.898Z,7.68
2019-02-28T05:11:02.635Z,6.62
2019-02-28T05:12:05.213Z,7.56
2019-02-28T05:13:02.977Z,6.71
2019-02-28T05:14:02.948Z,6.71
2019-02-28T05:15:02.841Z,6.12
2019-02-28T05:16:02.929Z,6.09
2019-02-28T05:17:02.824Z,6.09
2019-02-28T05:18:03.297Z,8.68
2019-02-28T05:19:03.564Z,7.06
2019-02-28T05:20:03.648Z,7.06
2019-02-28T05:21:02.959Z,13.22
2019-02-28T05:22:02.349Z,8.48
2019-02-28T05:23:03.788Z,6.79
2019-02-28T05:24:03.786Z,6.01
2019-02-28T05:25:03.750Z,9.66
2019-02-28T05:26:03.167Z,7.27
2019-02-28T05:27:02.826Z,5.81
2019-02-28T05:28:06.573Z,12.76
2019-02-28T05:29:02.892Z,6.77
2019-02-28T05:30:02.744Z,6.49
2019-02-28T05:31:02.811Z,6.49
2019-02-28T05:32:02.810Z,10.78
2019-02-28T05:33:02.756Z,5.67
2019-02-28T05:34:03.037Z,10.65
2019-02-28T05:35:02.646Z,14.24
2019-02-28T05:36:04.287Z,6.95
2019-02-28T05:37:03.607Z,5.5
2019-02-28T05:38:03.628Z,8.76
2019-02-28T05:39:03.710Z,6.84
2019-02-28T05:40:06.007Z,8.17
2019-02-28T05:41:03.566Z,8.83
2019-02-28T05:42:02.923Z,11.71
2019-02-28T05:43:02.869Z,7.56
2019-02-28T05:44:03.157Z,6.08
2019-02-28T05:45:03.026Z,11.52
2019-02-28T05:46:03.553Z,8.79
2019-02-28T05:47:03.470Z,7.74
2019-02-28T05:48:04.565Z,6.55
2019-02-28T05:49:03.752Z,10.11
2019-02-28T05:50:03.659Z,8.52
2019-02-28T05:51:02.803Z,7.48
2019-02-28T05:52:02.901Z,8.29
2019-02-28T05:53:06.183Z,8.29
2019-02-28T05:54:02.561Z,8.46
2019-02-28T05:55:03.390Z,7.76
2019-02-28T05:56:03.242Z,8.03
2019-02-28T05:57:04.594Z,8.08
2019-02-28T05:58:02.783Z,10.6
2019-02-28T05:59:02.587Z,7.49
2019-02-28T06:00:03.051Z,9.03
2019-02-28T06:01:02.938Z,9.95
2019-02-28T06:02:02.750Z,12.43
2019-02-28T06:03:03.239Z,10.3
2019-02-28T06:04:03.917Z,8.02
2019-02-28T06:05:03.281Z,8.02
2019-02-28T06:06:02.901Z,9.03
2019-02-28T06:07:03.086Z,9.03
2019-02-28T06:08:03.533Z,11.66
2019-02-28T06:09:03.055Z,9.04
2019-02-28T06:10:03.734Z,9.04
2019-02-28T06:11:02.774Z,8.9
2019-02-28T06:12:02.808Z,9.39
2019-02-28T06:13:02.912Z,11.25
2019-02-28T06:14:02.618Z,8.82
2019-02-28T06:15:03.695Z,10.14
2019-02-28T06:16:02.812Z,12.71
2019-02-28T06:17:02.923Z,10.12
2019-02-28T06:18:03.770Z,7.65
2019-02-28T06:19:04.498Z,10.49
2019-02-28T06:20:03.783Z,10.18
2019-02-28T06:21:03.593Z,12.48
2019-02-28T06:22:02.736Z,8.85
2019-02-28T06:23:03.003Z,8.34
2019-02-28T06:24:02.877Z,7.23
2019-02-28T06:25:03.208Z,8.96
2019-02-28T06:26:03.004Z,7.31
2019-02-28T06:27:03.613Z,12.26
2019-02-28T06:28:02.772Z,11.74
2019-02-28T06:29:04.910Z,8.74
2019-02-28T06:30:02.614Z,8.8
2019-02-28T06:31:03.694Z,8.59
2019-02-28T06:32:03.627Z,10.64
2019-02-28T06:33:03.605Z,6.52
2019-02-28T06:34:05.518Z,7.74
2019-02-28T06:35:02.737Z,9.16
2019-02-28T06:36:04.530Z,7.62
2019-02-28T06:37:03.568Z,9.75
2019-02-28T06:38:02.987Z,12.41
2019-02-28T06:39:03.614Z,9.68
2019-02-28T06:40:03.487Z,8.28
2019-02-28T06:41:04.206Z,7.52
2019-02-28T06:42:03.497Z,10.88
2019-02-28T06:43:02.941Z,11.2
2019-02-28T06:44:03.242Z,14.58
2019-02-28T06:45:03.762Z,7.49
2019-02-28T06:46:03.762Z,12.71
2019-02-28T06:47:03.719Z,8.86
2019-02-28T06:48:03.697Z,10.6
2019-02-28T06:49:06.948Z,6.95
2019-02-28T06:50:03.746Z,8.05
2019-02-28T06:51:03.605Z,7.61
2019-02-28T06:52:02.790Z,10.34
2019-02-28T06:53:03.082Z,7.69
2019-02-28T06:54:04.322Z,8.04
2019-02-28T06:55:02.869Z,10.2
2019-02-28T06:56:02.871Z,16.45
2019-02-28T06:57:02.493Z,16.02
2019-02-28T06:58:02.950Z,16.02
2019-02-28T06:59:04.868Z,15.11
2019-02-28T07:00:02.852Z,7.35
2019-02-28T07:01:03.328Z,7.35
2019-02-28T07:02:03.636Z,8.71
2019-02-28T07:03:04.343Z,6.92
2019-02-28T07:04:02.737Z,6.92
2019-02-28T07:05:03.213Z,5.81
2019-02-28T07:06:02.941Z,12.15
2019-02-28T07:07:03.033Z,7.41
2019-02-28T07:08:02.687Z,8.13
2019-02-28T07:09:03.094Z,9.14
2019-02-28T07:10:02.718Z,9.78
2019-02-28T07:11:02.607Z,13.44
2019-02-28T07:12:03.708Z,8.08
2019-02-28T07:13:04.456Z,7.58
2019-02-28T07:14:02.716Z,8.82
2019-02-28T07:15:02.980Z,9.25
2019-02-28T07:16:04.349Z,6.26
2019-02-28T07:17:02.957Z,9.05
2019-02-28T07:18:03.649Z,10.49
2019-02-28T07:19:02.851Z,8.28
2019-02-28T07:20:03.522Z,6.5
2019-02-28T07:21:03.455Z,12.5
2019-02-28T07:22:03.382Z,7.58
2019-02-28T07:23:02.365Z,9.42
2019-02-28T07:24:03.747Z,8.77
2019-02-28T07:25:03.438Z,9.07
2019-02-28T07:26:03.502Z,9.32
2019-02-28T07:27:04.241Z,9.09
2019-02-28T07:28:03.541Z,8.91
2019-02-28T07:29:03.532Z,9.09
2019-02-28T07:30:03.518Z,10.62
2019-02-28T07:31:02.874Z,8.2
2019-02-28T07:32:03.354Z,8.55
2019-02-28T07:33:09.346Z,9.16
2019-02-28T07:34:03.256Z,11.31
2019-02-28T07:35:03.455Z,14.07
2019-02-28T07:36:05.559Z,7.76
2019-02-28T07:37:03.275Z,15.17
2019-02-28T07:38:03.133Z,7.96
2019-02-28T07:39:04.455Z,9.06
2019-02-28T07:40:02.984Z,8.56
2019-02-28T07:41:03.421Z,9.57
2019-02-28T07:42:03.099Z,9.64
2019-02-28T07:43:03.276Z,16.71
2019-02-28T07:44:03.137Z,11.97
2019-02-28T07:45:03.243Z,11.49
2019-02-28T07:46:04.418Z,9.89
2019-02-28T07:47:03.429Z,9.89
2019-02-28T07:48:03.355Z,9.89
2019-02-28T07:49:03.270Z,9.89
2019-02-28T07:50:03.102Z,9.84
2019-02-28T07:51:02.880Z,11.64
2019-02-28T07:52:03.207Z,11.64
2019-02-28T07:53:05.489Z,9.54
2019-02-28T07:54:03.043Z,11.18
2019-02-28T07:55:02.904Z,11.18
2019-02-28T07:56:03.726Z,12.82
2019-02-28T07:57:02.938Z,10.98
2019-02-28T07:58:03.128Z,12.26
2019-02-28T07:59:05.233Z,11.75
2019-02-28T08:00:03.359Z,12.71
2019-02-28T08:01:03.235Z,9.43
2019-02-28T08:02:03.154Z,7.46
2019-02-28T08:03:03.044Z,9.35
2019-02-28T08:04:02.494Z,16.59
2019-02-28T08:05:03.325Z,14.86
2019-02-28T08:06:04.732Z,9.48
2019-02-28T08:07:03.319Z,13.8
2019-02-28T08:08:03.006Z,11.32
2019-02-28T08:09:04.801Z,12.14
2019-02-28T08:10:03.383Z,16.23
2019-02-28T08:11:03.470Z,10.86
2019-02-28T08:12:03.422Z,10.25
2019-02-28T08:13:04.058Z,12.12
2019-02-28T08:14:03.617Z,11.06
2019-02-28T08:15:03.369Z,10.37
2019-02-28T08:16:03.528Z,11.26
2019-02-28T08:17:05.389Z,12.21
2019-02-28T08:18:05.731Z,11.41
2019-02-28T08:19:03.187Z,10.28
2019-02-28T08:20:03.023Z,12.25
2019-02-28T08:21:05.268Z,16.09
2019-02-28T08:22:03.511Z,10.2
2019-02-28T08:23:03.609Z,10.75
2019-02-28T08:24:05.331Z,13.21
2019-02-28T08:25:03.766Z,13.11
2019-02-28T08:26:02.639Z,12.4
2019-02-28T08:27:02.721Z,10.05
2019-02-28T08:28:02.961Z,15.66
2019-02-28T08:29:02.750Z,12.46
2019-02-28T08:30:03.109Z,12.54
2019-02-28T08:31:03.208Z,13.4
2019-02-28T08:32:06.895Z,15.94
2019-02-28T08:33:03.223Z,10.51
2019-02-28T08:34:03.055Z,14.24
2019-02-28T08:35:03.061Z,14.24
2019-02-28T08:36:02.955Z,15.99
2019-02-28T08:37:02.868Z,16.5
2019-02-28T08:38:03.139Z,16.5
2019-02-28T08:39:03.104Z,12.96
2019-02-28T08:40:03.247Z,13.81
2019-02-28T08:41:03.421Z,12.86
2019-02-28T08:42:04.723Z,13.11
2019-02-28T08:43:03.451Z,20.78
2019-02-28T08:44:03.313Z,15.12
2019-02-28T08:45:03.726Z,15.36
2019-02-28T08:46:09.423Z,16.23
2019-02-28T08:47:03.463Z,16.8
2019-02-28T08:48:03.273Z,14.46
2019-02-28T08:49:06.472Z,14.58
2019-02-28T08:50:03.554Z,13.55
2019-02-28T08:51:02.658Z,17.04
2019-02-28T08:52:05.557Z,15.44
2019-02-28T08:53:02.675Z,18.19
2019-02-28T08:54:02.736Z,12.76
2019-02-28T08:55:06.648Z,13.98
2019-02-28T08:56:02.768Z,17.39
2019-02-28T08:57:02.839Z,15.73
2019-02-28T08:58:05.946Z,14.38
2019-02-28T08:59:11.500Z,14.44
2019-02-28T09:00:03.215Z,17.44
2019-02-28T09:01:05.248Z,17
2019-02-28T09:02:02.894Z,16.97
2019-02-28T09:03:03.388Z,13.63
2019-02-28T09:04:04.952Z,16.12
2019-02-28T09:05:03.338Z,14.54
2019-02-28T09:06:03.793Z,16.18
2019-02-28T09:07:03.734Z,15.7
2019-02-28T09:08:03.610Z,16.46
2019-02-28T09:09:03.612Z,16.82
2019-02-28T09:10:03.327Z,19.29
2019-02-28T09:11:03.551Z,18.14
2019-02-28T09:12:03.545Z,17.39
2019-02-28T09:13:07.557Z,14.59
2019-02-28T09:14:03.493Z,14.71
2019-02-28T09:15:02.970Z,14.98
2019-02-28T09:16:04.849Z,19.66
2019-02-28T09:17:02.548Z,20.69
2019-02-28T09:18:03.589Z,17.21
2019-02-28T09:19:03.686Z,17.32
2019-02-28T09:20:03.517Z,20.04
2019-02-28T09:21:02.667Z,16.59
2019-02-28T09:22:03.643Z,22.82
2019-02-28T09:23:03.239Z,21.58
2019-02-28T09:24:02.885Z,14.98
2019-02-28T09:25:03.062Z,17.05
2019-02-28T09:26:03.535Z,17.05
2019-02-28T09:27:04.060Z,22.2
2019-02-28T09:28:02.984Z,18.22
2019-02-28T09:29:03.324Z,18.22
2019-02-28T09:30:03.315Z,15.95
2019-02-28T09:31:04.858Z,16.75
2019-02-28T09:32:02.973Z,16.75
2019-02-28T09:33:03.047Z,17.79
2019-02-28T09:34:03.316Z,19.66
2019-02-28T09:35:05.726Z,30.34
2019-02-28T09:36:03.523Z,18.55
2019-02-28T09:37:03.698Z,18.04
2019-02-28T09:38:06.144Z,23.92
2019-02-28T09:39:03.509Z,16.29
2019-02-28T09:40:03.705Z,16.25
2019-02-28T09:41:04.488Z,17.35
2019-02-28T09:42:03.401Z,20.61
2019-02-28T09:43:03.516Z,16.16
2019-02-28T09:44:03.466Z,15.29
2019-02-28T09:45:06.395Z,15.99
2019-02-28T09:46:03.271Z,20.08
2019-02-28T09:47:03.343Z,19.55
2019-02-28T09:48:02.792Z,16.38
2019-02-28T09:49:03.411Z,17.64
2019-02-28T09:50:02.805Z,16.06
2019-02-28T09:51:03.092Z,16.72
2019-02-28T09:52:06.040Z,16.02
2019-02-28T09:53:02.362Z,17.77
2019-02-28T09:54:03.475Z,16.71
2019-02-28T09:55:03.270Z,17.32
2019-02-28T09:56:02.972Z,16.02
2019-02-28T09:57:03.127Z,18.12
2019-02-28T09:58:03.267Z,19.88
2019-02-28T09:59:03.919Z,16.4
2019-02-28T10:00:03.137Z,15.6
2019-02-28T10:01:03.308Z,17.99
2019-02-28T10:02:07.904Z,15.35
2019-02-28T10:03:03.632Z,15.01
2019-02-28T10:04:03.733Z,16.03
2019-02-28T10:05:06.442Z,18.04
2019-02-28T10:06:03.426Z,18.66
2019-02-28T10:07:03.097Z,21.39
2019-02-28T10:08:03.564Z,17.41
2019-02-28T10:09:03.382Z,16.23
2019-02-28T10:10:03.261Z,16.19
2019-02-28T10:11:03.458Z,19.39
2019-02-28T10:12:04.580Z,17.62
2019-02-28T10:13:03.404Z,16.08
2019-02-28T10:14:03.117Z,20.72
2019-02-28T10:15:06.932Z,20.72
2019-02-28T10:16:03.498Z,20.68
2019-02-28T10:17:03.386Z,20.68
2019-02-28T10:18:04.083Z,20.31
2019-02-28T10:19:05.160Z,25.17
2019-02-28T10:20:03.224Z,25.17
2019-02-28T10:21:03.388Z,29.24
2019-02-28T10:22:03.403Z,28.53
2019-02-28T10:23:03.372Z,28.53
2019-02-28T10:24:03.276Z,26.87
2019-02-28T10:25:06.437Z,28.01
2019-02-28T10:26:03.318Z,21.62
2019-02-28T10:27:03.590Z,24.12
2019-02-28T10:28:03.623Z,22.82
2019-02-28T10:29:04.444Z,24.19
2019-02-28T10:30:03.562Z,21.89
2019-02-28T10:31:03.604Z,34.94
2019-02-28T10:32:06.123Z,28.52
2019-02-28T10:33:03.049Z,22.79
2019-02-28T10:34:03.784Z,22.07
2019-02-28T10:35:03.484Z,27.31
2019-02-28T10:36:03.520Z,25.94
2019-02-28T10:37:04.339Z,24.84
2019-02-28T10:38:03.699Z,21.44
2019-02-28T10:39:05.809Z,22.87
2019-02-28T10:40:05.066Z,24.25
2019-02-28T10:41:03.626Z,27.28
2019-02-28T10:42:04.985Z,25.06
2019-02-28T10:43:03.565Z,26.42
2019-02-28T10:44:03.649Z,24.41
2019-02-28T10:45:03.569Z,23.6
2019-02-28T10:46:03.801Z,22.19
2019-02-28T10:47:02.582Z,24.45
2019-02-28T10:48:03.977Z,24.18
2019-02-28T10:49:02.923Z,30.55
2019-02-28T10:50:02.900Z,29.9
2019-02-28T10:51:11.852Z,36.24
2019-02-28T10:52:02.801Z,24.78
2019-02-28T10:53:05.292Z,27.42
2019-02-28T10:54:03.015Z,38.56
2019-02-28T10:55:03.292Z,25.62
2019-02-28T10:56:02.811Z,35.45
2019-02-28T10:57:05.898Z,27.5
2019-02-28T10:58:02.813Z,28.74
2019-02-28T10:59:02.697Z,24.62
2019-02-28T11:00:02.705Z,32.81
2019-02-28T11:01:07.517Z,28.53
2019-02-28T11:02:02.708Z,25.84
2019-02-28T11:03:03.844Z,29.29
2019-02-28T11:04:04.453Z,25.33
2019-02-28T11:05:02.745Z,25.99
2019-02-28T11:06:03.174Z,25.99
2019-02-28T11:07:03.061Z,28.98
2019-02-28T11:08:02.960Z,28.98
2019-02-28T11:09:03.049Z,28.84
2019-02-28T11:10:03.089Z,27.89
2019-02-28T11:11:03.033Z,32.16
2019-02-28T11:12:02.940Z,27.54
2019-02-28T11:13:02.882Z,27.08
2019-02-28T11:14:03.869Z,28.32
2019-02-28T11:15:03.410Z,32.12
2019-02-28T11:16:02.978Z,28.49
2019-02-28T11:17:02.807Z,26.92
2019-02-28T11:18:08.315Z,28.91
2019-02-28T11:19:03.177Z,32.61
2019-02-28T11:20:03.282Z,27.64
2019-02-28T11:21:02.995Z,25.72
2019-02-28T11:22:04.729Z,32.09
2019-02-28T11:23:03.148Z,31.71
2019-02-28T11:24:03.020Z,34.08
2019-02-28T11:25:03.179Z,40.01
2019-02-28T11:26:02.856Z,28.26
2019-02-28T11:27:02.653Z,29.05
2019-02-28T11:28:02.766Z,32.38
2019-02-28T11:29:03.852Z,31.57
2019-02-28T11:30:03.248Z,29.05
2019-02-28T11:31:03.003Z,30.92
2019-02-28T11:32:03.482Z,35.88
2019-02-28T11:33:04.578Z,33.56
2019-02-28T11:34:03.844Z,33.9
2019-02-28T11:35:03.738Z,33.06
2019-02-28T11:36:03.311Z,33.74
2019-02-28T11:37:05.438Z,31.58
2019-02-28T11:38:04.892Z,33.51
2019-02-28T11:39:03.659Z,31.71
2019-02-28T11:40:05.366Z,29.25
2019-02-28T11:41:03.371Z,38.32
2019-02-28T11:42:03.322Z,27.78
2019-02-28T11:43:03.883Z,30.37
2019-02-28T11:44:03.457Z,29.3
2019-02-28T11:45:03.081Z,37.39
2019-02-28T11:46:03.079Z,31.15
2019-02-28T11:47:03.187Z,39.45
2019-02-28T11:48:03.199Z,39.37
2019-02-28T11:49:03.187Z,34.17
2019-02-28T11:50:04.041Z,37.24
2019-02-28T11:51:03.530Z,34.82
2019-02-28T11:52:02.820Z,34.33
2019-02-28T11:53:05.838Z,36.22
2019-02-28T11:54:03.521Z,36.22
2019-02-28T11:55:03.257Z,32.6
2019-02-28T11:56:02.923Z,32.96
2019-02-28T11:57:04.451Z,32.96
2019-02-28T11:58:03.508Z,28.82
2019-02-28T11:59:01.967Z,32.15
2019-02-28T12:00:03.318Z,32.15
2019-02-28T12:01:03.347Z,36.22
2019-02-28T12:02:03.622Z,34.48
2019-02-28T12:03:05.418Z,31.88
2019-02-28T12:04:02.919Z,27.41
2019-02-28T12:05:03.186Z,28.07
2019-02-28T12:06:03.067Z,26.52
2019-02-28T12:07:03.033Z,23.31
2019-02-28T12:08:02.934Z,23.31
2019-02-28T12:09:02.900Z,31.84
2019-02-28T12:10:03.373Z,23.87
2019-02-28T12:11:02.977Z,26.12
2019-02-28T12:12:02.970Z,24.79
2019-02-28T12:13:02.857Z,25.77
2019-02-28T12:14:02.999Z,21.63
2019-02-28T12:15:05.952Z,25.77
2019-02-28T12:16:03.717Z,23.49
2019-02-28T12:17:02.960Z,18.72
2019-02-28T12:18:04.440Z,23.89
2019-02-28T12:19:02.922Z,22.74
2019-02-28T12:20:03.827Z,22.85
2019-02-28T12:21:04.910Z,26.12
2019-02-28T12:22:02.946Z,23.1
2019-02-28T12:23:02.816Z,19.18
2019-02-28T12:24:02.675Z,23.25
2019-02-28T12:25:04.446Z,22.65
2019-02-28T12:26:02.730Z,23.86
2019-02-28T12:27:04.143Z,20.72
2019-02-28T12:28:05.768Z,22.32
2019-02-28T12:29:02.802Z,20.18
2019-02-28T12:30:03.092Z,18.01
2019-02-28T12:31:02.867Z,21.41
2019-02-28T12:32:02.722Z,28.91
2019-02-28T12:33:03.358Z,16.97
2019-02-28T12:34:02.961Z,22.22
2019-02-28T12:35:02.836Z,17.52
2019-02-28T12:36:03.058Z,25.08
2019-02-28T12:37:03.613Z,20.78
2019-02-28T12:38:03.575Z,20.78
2019-02-28T12:39:03.587Z,22.65
2019-02-28T12:40:02.856Z,22.68
2019-02-28T12:41:02.663Z,22.68
2019-02-28T12:42:03.552Z,20.88
2019-02-28T12:43:05.310Z,20.88
2019-02-28T12:44:03.457Z,18.61
2019-02-28T12:45:02.986Z,20.11
2019-02-28T12:46:03.559Z,20.67
2019-02-28T12:47:06.404Z,22.94
2019-02-28T12:48:03.365Z,18.59
2019-02-28T12:49:02.748Z,19.38
2019-02-28T12:50:03.664Z,18.62
2019-02-28T12:51:05.303Z,18.61
2019-02-28T12:52:03.623Z,16.94
2019-02-28T12:53:03.175Z,17.09
2019-02-28T12:54:03.330Z,19.75
2019-02-28T12:55:04.769Z,22.28
2019-02-28T12:56:03.408Z,23.01
2019-02-28T12:57:03.265Z,16.04
2019-02-28T12:58:03.364Z,18.94
2019-02-28T12:59:03.157Z,17.85
2019-02-28T13:00:03.742Z,18.5
2019-02-28T13:01:03.327Z,16.57